createdAt,value
2023-05-03T00:06:19.425Z,7.07
2023-05-03T00:08:46.828Z,6.55
2023-05-03T00:11:14.495Z,6.18
2023-05-03T00:13:43.447Z,7.07
2023-05-03T00:16:10.680Z,8.98
2023-05-03T00:18:37.743Z,5.65
2023-05-03T00:21:05.263Z,6.80
2023-05-03T00:23:33.351Z,5.70
2023-05-03T00:26:00.692Z,6.30
2023-05-03T00:28:29.062Z,6.85
2023-05-03T00:31:08.171Z,6.07
2023-05-03T00:33:35.851Z,7.40
2023-05-03T00:36:08.762Z,7.07
2023-05-03T00:38:35.901Z,7.30
2023-05-03T00:41:03.381Z,6.68
2023-05-03T00:43:31.641Z,7.28
2023-05-03T00:46:15.307Z,6.25
2023-05-03T00:48:43.694Z,5.38
2023-05-03T00:51:14.223Z,6.82
2023-05-03T00:53:41.805Z,4.82
2023-05-03T00:56:10.583Z,6.70
2023-05-03T00:58:38.210Z,6.45
2023-05-03T01:01:07.782Z,5.55
2023-05-03T01:03:37.069Z,5.07
2023-05-03T01:06:18.056Z,8.60
2023-05-03T01:08:59.773Z,5.68
2023-05-03T01:11:37.891Z,6.38
2023-05-03T01:14:16.188Z,6.05
2023-05-03T01:16:50.566Z,6.45
2023-05-03T01:19:28.048Z,6.93
2023-05-03T01:22:03.252Z,4.90
2023-05-03T01:24:34.202Z,8.05
2023-05-03T01:27:02.930Z,5.85
2023-05-03T01:29:30.869Z,6.95
2023-05-03T01:32:01.342Z,5.47
2023-05-03T01:34:37.192Z,7.57
2023-05-03T01:37:05.366Z,5.85
2023-05-03T01:39:37.580Z,5.30
2023-05-03T01:42:07.252Z,5.57
2023-05-03T01:44:35.561Z,5.70
2023-05-03T01:47:03.146Z,6.25
2023-05-03T01:49:30.123Z,7.18
2023-05-03T01:51:57.190Z,9.00
2023-05-03T01:54:24.368Z,8.45
2023-05-03T01:56:52.315Z,10.02
2023-05-03T01:59:21.345Z,13.25
2023-05-03T02:01:48.594Z,7.53
2023-05-03T02:04:16.188Z,8.13
2023-05-03T02:06:44.133Z,8.30
2023-05-03T02:09:12.281Z,7.05
2023-05-03T02:11:41.896Z,7.35
2023-05-03T02:14:13.746Z,10.18
2023-05-03T02:16:43.800Z,7.68
2023-05-03T02:19:11.932Z,7.80
2023-05-03T02:21:39.171Z,6.03
2023-05-03T02:24:06.920Z,5.97
2023-05-03T02:26:34.817Z,7.70
2023-05-03T02:29:02.270Z,9.02
2023-05-03T02:31:30.344Z,7.55
2023-05-03T02:33:59.721Z,6.63
2023-05-03T02:36:27.917Z,6.47
2023-05-03T02:39:06.330Z,5.28
2023-05-03T02:41:33.856Z,5.82
2023-05-03T02:44:01.250Z,5.70
2023-05-03T02:46:28.831Z,7.30
2023-05-03T02:48:56.767Z,6.25
2023-05-03T02:51:27.154Z,6.78
2023-05-03T02:53:54.832Z,4.65
2023-05-03T02:56:22.305Z,5.45
2023-05-03T02:58:49.909Z,8.95
2023-05-03T03:01:16.797Z,6.85
2023-05-03T03:03:44.182Z,5.25
2023-05-03T03:06:12.188Z,6.55
2023-05-03T03:08:41.120Z,4.15
2023-05-03T03:11:08.305Z,4.38
2023-05-03T03:13:35.237Z,5.60
2023-05-03T03:16:03.241Z,4.47
2023-05-03T03:18:40.489Z,4.97
2023-05-03T03:21:09.175Z,5.88
2023-05-03T03:23:36.354Z,5.63
2023-05-03T03:26:05.068Z,5.97
2023-05-03T03:28:33.062Z,7.15
2023-05-03T03:31:00.543Z,4.97
2023-05-03T03:33:27.936Z,6.75
2023-05-03T03:35:55.622Z,5.93
2023-05-03T03:38:23.256Z,4.88
2023-05-03T03:40:51.763Z,5.28
2023-05-03T03:46:34.680Z,4.50
2023-05-03T03:51:43.509Z,4.72
2023-05-03T03:54:12.092Z,4.50
2023-05-03T03:56:39.858Z,5.30
2023-05-03T03:59:08.945Z,5.00
2023-05-03T04:02:06.941Z,8.57
2023-05-03T04:04:37.937Z,4.53
2023-05-03T04:07:05.184Z,5.05
2023-05-03T04:09:32.080Z,4.65
2023-05-03T04:11:59.329Z,5.97
2023-05-03T04:14:26.639Z,6.03
2023-05-03T04:16:53.924Z,4.30
2023-05-03T04:19:20.992Z,6.63
2023-05-03T04:21:50.271Z,7.70
2023-05-03T04:24:17.208Z,6.53
2023-05-03T04:26:45.637Z,7.50
2023-05-03T04:29:12.923Z,5.95
2023-05-03T04:31:40.784Z,5.35
2023-05-03T04:34:08.434Z,4.32
2023-05-03T04:36:35.749Z,4.07
2023-05-03T04:39:06.009Z,5.22
2023-05-03T04:41:33.377Z,5.43
2023-05-03T04:44:00.450Z,5.72
2023-05-03T04:46:29.325Z,5.22
2023-05-03T04:48:56.415Z,5.60
2023-05-03T04:51:23.451Z,5.43
2023-05-03T04:53:50.483Z,4.35
2023-05-03T04:56:18.651Z,5.18
2023-05-03T04:58:45.528Z,5.57
2023-05-03T05:01:12.510Z,15.73
2023-05-03T05:03:39.370Z,22.50
2023-05-03T05:06:06.529Z,25.95
2023-05-03T05:08:33.375Z,16.13
2023-05-03T05:11:02.016Z,17.73
2023-05-03T05:13:30.214Z,28.13
2023-05-03T05:15:57.258Z,17.40
2023-05-03T05:18:24.119Z,31.15
2023-05-03T05:20:51.093Z,16.13
2023-05-03T05:23:20.183Z,21.70
2023-05-03T05:25:47.380Z,18.48
2023-05-03T05:28:14.115Z,30.83
2023-05-03T05:30:42.202Z,21.55
2023-05-03T05:33:09.021Z,40.42
2023-05-03T05:35:35.910Z,24.08
2023-05-03T05:38:02.697Z,29.98
2023-05-03T05:40:29.600Z,13.50
2023-05-03T05:42:56.578Z,91.75
2023-05-03T05:45:23.385Z,13.88
2023-05-03T05:47:51.629Z,88.85
2023-05-03T05:50:19.241Z,98.80
2023-05-03T05:55:25.223Z,133.98
2023-05-03T05:57:52.057Z,59.65
2023-05-03T06:00:19.619Z,82.75
2023-05-03T06:02:46.595Z,108.20
2023-05-03T06:05:14.868Z,62.38
2023-05-03T06:07:41.700Z,68.88
2023-05-03T06:10:14.504Z,52.92
2023-05-03T06:12:47.500Z,57.13
2023-05-03T06:15:15.306Z,45.42
2023-05-03T06:17:44.727Z,64.07
2023-05-03T06:20:13.221Z,28.40
2023-05-03T06:22:44.456Z,20.15
2023-05-03T06:25:11.625Z,36.05
2023-05-03T06:27:38.771Z,21.48
2023-05-03T06:30:07.780Z,17.95
2023-05-03T06:32:34.970Z,20.08
2023-05-03T06:35:02.334Z,18.80
2023-05-03T06:37:29.286Z,23.05
2023-05-03T06:40:29.770Z,39.40
2023-05-03T06:42:58.623Z,21.13
2023-05-03T06:45:26.381Z,17.98
2023-05-03T06:47:53.444Z,18.40
2023-05-03T06:50:20.739Z,18.20
2023-05-03T06:52:48.176Z,18.13
2023-05-03T06:55:15.292Z,17.10
2023-05-03T06:57:42.730Z,18.05
2023-05-03T07:00:12.909Z,21.60
2023-05-03T07:02:41.870Z,15.20
2023-05-03T07:05:09.798Z,18.80
2023-05-03T07:07:37.002Z,18.15
2023-05-03T07:10:05.624Z,16.30
2023-05-03T07:12:33.500Z,18.55
2023-05-03T07:15:02.577Z,16.50
2023-05-03T07:17:31.205Z,30.27
2023-05-03T07:19:59.480Z,29.33
2023-05-03T07:22:27.134Z,16.00
2023-05-03T07:24:55.045Z,22.42
2023-05-03T07:27:22.144Z,16.70
2023-05-03T07:29:49.146Z,18.67
2023-05-03T07:32:16.399Z,16.33
2023-05-03T07:34:45.513Z,19.02
2023-05-03T07:37:13.703Z,17.02
2023-05-03T07:39:42.257Z,18.83
2023-05-03T07:42:11.461Z,21.05
2023-05-03T07:44:39.625Z,21.77
2023-05-03T07:47:07.782Z,18.30
2023-05-03T07:49:37.865Z,18.00
2023-05-03T07:52:07.497Z,18.67
2023-05-03T07:54:35.862Z,23.75
2023-05-03T07:57:02.860Z,16.15
2023-05-03T08:02:11.096Z,16.55
2023-05-03T08:04:40.329Z,18.83
2023-05-03T08:07:09.354Z,19.98
2023-05-03T08:09:36.640Z,19.98
2023-05-03T08:12:03.819Z,17.45
2023-05-03T08:14:31.773Z,17.52
2023-05-03T08:16:59.108Z,16.83
2023-05-03T08:19:26.535Z,18.58
2023-05-03T08:21:53.632Z,17.45
2023-05-03T08:24:22.128Z,18.20
2023-05-03T08:26:49.341Z,17.35
2023-05-03T08:29:17.074Z,17.80
2023-05-03T08:31:46.133Z,16.33
2023-05-03T08:34:13.517Z,17.10
2023-05-03T08:36:41.631Z,16.45
2023-05-03T08:39:08.903Z,16.30
2023-05-03T08:41:40.165Z,20.02
2023-05-03T08:44:11.789Z,14.68
2023-05-03T08:46:39.261Z,16.00
2023-05-03T08:49:07.793Z,17.88
2023-05-03T08:51:35.364Z,17.27
2023-05-03T08:54:02.716Z,15.98
2023-05-03T08:56:33.685Z,17.20
2023-05-03T08:59:02.698Z,16.55
2023-05-03T09:01:29.645Z,17.52
2023-05-03T09:03:57.329Z,15.18
2023-05-03T09:06:24.856Z,16.40
2023-05-03T09:08:52.587Z,15.93
2023-05-03T09:11:24.056Z,18.27
2023-05-03T09:13:52.233Z,14.70
2023-05-03T09:16:27.712Z,14.45
2023-05-03T09:18:59.908Z,18.05
2023-05-03T09:21:29.151Z,14.85
2023-05-03T09:23:56.365Z,14.85
2023-05-03T09:26:30.464Z,14.20
2023-05-03T09:28:59.575Z,14.00
2023-05-03T09:31:29.698Z,13.65
2023-05-03T09:33:58.080Z,14.70
2023-05-03T09:36:25.831Z,14.82
2023-05-03T09:38:53.054Z,13.70
2023-05-03T09:41:30.645Z,12.38
2023-05-03T09:43:58.392Z,13.48
2023-05-03T09:46:25.582Z,13.20
2023-05-03T09:48:54.581Z,13.65
2023-05-03T09:51:22.940Z,13.48
2023-05-03T09:53:50.666Z,12.38
2023-05-03T09:56:18.171Z,12.85
2023-05-03T09:58:45.241Z,11.65
2023-05-03T10:01:14.640Z,16.30
2023-05-03T10:03:42.905Z,14.30
2023-05-03T10:06:24.354Z,15.13
2023-05-03T10:08:56.217Z,12.18
2023-05-03T10:11:27.058Z,15.38
2023-05-03T10:13:55.867Z,12.20
2023-05-03T10:19:16.173Z,13.90
2023-05-03T10:21:56.187Z,13.57
2023-05-03T10:24:23.087Z,15.20
2023-05-03T10:26:51.547Z,15.82
2023-05-03T10:29:48.669Z,15.77
2023-05-03T10:32:34.721Z,17.15
2023-05-03T10:35:04.189Z,15.73
2023-05-03T10:37:34.601Z,16.63
2023-05-03T10:40:11.822Z,20.20
2023-05-03T10:42:48.028Z,16.08
2023-05-03T10:45:26.041Z,15.32
2023-05-03T10:48:23.190Z,15.23
2023-05-03T10:50:50.525Z,15.68
2023-05-03T10:53:41.386Z,14.82
2023-05-03T10:56:11.617Z,15.07
2023-05-03T10:58:43.623Z,16.88
2023-05-03T11:01:13.247Z,17.90
2023-05-03T11:03:52.253Z,17.67
2023-05-03T11:06:33.393Z,17.10
2023-05-03T11:09:04.204Z,17.30
2023-05-03T11:11:31.550Z,17.52
2023-05-03T11:13:59.887Z,19.30
2023-05-03T11:16:27.478Z,17.55
2023-05-03T11:18:54.850Z,19.20
2023-05-03T11:21:24.080Z,18.58
2023-05-03T11:23:52.238Z,18.73
2023-05-03T11:26:20.948Z,16.90
2023-05-03T11:28:48.945Z,15.38
2023-05-03T11:31:16.339Z,16.83
2023-05-03T11:33:44.631Z,16.95
2023-05-03T11:36:12.968Z,17.13
2023-05-03T11:38:39.990Z,15.23
2023-05-03T11:41:17.009Z,18.85
2023-05-03T11:43:46.236Z,16.52
2023-05-03T11:46:18.485Z,16.35
2023-05-03T11:48:45.626Z,16.65
2023-05-03T11:51:12.378Z,14.70
2023-05-03T11:53:39.780Z,15.73
2023-05-03T11:56:08.101Z,17.58
2023-05-03T11:58:35.428Z,17.17
2023-05-03T12:01:03.746Z,16.88
2023-05-03T12:03:32.240Z,16.27
2023-05-03T12:06:00.484Z,16.52
2023-05-03T12:08:30.794Z,14.32
2023-05-03T12:11:02.610Z,16.88
2023-05-03T12:13:34.089Z,15.20
2023-05-03T12:18:47.301Z,16.90
2023-05-03T12:23:45.936Z,13.32
2023-05-03T12:26:14.444Z,17.75
2023-05-03T12:28:41.780Z,18.52
2023-05-03T12:31:11.580Z,13.18
2023-05-03T12:33:43.321Z,10.93
2023-05-03T12:36:13.341Z,13.05
2023-05-03T12:38:43.697Z,13.10
2023-05-03T12:41:11.154Z,12.25
2023-05-03T12:43:38.150Z,11.93
2023-05-03T12:46:32.431Z,12.77
2023-05-03T12:48:54.395Z,12.02
2023-05-03T12:51:26.009Z,11.57
2023-05-03T12:53:55.113Z,10.27
2023-05-03T12:56:24.723Z,14.98
2023-05-03T12:59:15.062Z,11.70
2023-05-03T13:02:40.955Z,14.57
2023-05-03T13:06:59.353Z,13.30
2023-05-03T13:09:37.684Z,13.43
2023-05-03T13:12:15.354Z,10.68
2023-05-03T13:14:42.285Z,7.78
2023-05-03T13:17:09.116Z,8.65
2023-05-03T13:19:37.200Z,8.60
2023-05-03T13:22:04.186Z,9.70
2023-05-03T13:24:30.938Z,9.07
2023-05-03T13:26:57.748Z,9.45
2023-05-03T13:29:24.570Z,8.50
2023-05-03T13:31:51.345Z,10.98
2023-05-03T13:34:18.159Z,8.48
2023-05-03T13:36:46.301Z,8.77
2023-05-03T13:39:13.068Z,9.00
2023-05-03T13:41:40.316Z,8.25
2023-05-03T13:44:08.368Z,7.43
2023-05-03T13:46:35.875Z,6.65
2023-05-03T13:49:02.878Z,7.85
2023-05-03T13:51:29.723Z,7.13
2023-05-03T13:53:59.504Z,7.90
2023-05-03T13:56:26.471Z,6.85
2023-05-03T13:58:53.552Z,7.65
2023-05-03T14:01:20.316Z,9.65
2023-05-03T14:03:47.319Z,6.93
2023-05-03T14:06:14.369Z,6.80
2023-05-03T14:08:41.229Z,5.78
2023-05-03T14:11:13.741Z,5.50
2023-05-03T14:13:54.726Z,6.05
2023-05-03T14:18:54.467Z,5.40
2023-05-03T14:21:21.341Z,4.15
2023-05-03T14:23:49.080Z,5.47
2023-05-03T14:26:18.151Z,5.80
2023-05-03T14:28:45.004Z,6.32
2023-05-03T14:31:12.134Z,7.65
2023-05-03T14:33:39.359Z,6.65
2023-05-03T14:36:07.126Z,5.20
2023-05-03T14:38:34.013Z,4.88
2023-05-03T14:41:00.880Z,6.03
2023-05-03T14:43:29.047Z,4.80
2023-05-03T14:45:55.806Z,4.53
2023-05-03T14:48:22.582Z,4.03
2023-05-03T14:50:49.912Z,4.25
2023-05-03T14:53:16.951Z,6.03
2023-05-03T14:55:43.908Z,4.57
2023-05-03T14:58:10.793Z,5.07
2023-05-03T15:00:39.164Z,5.15
2023-05-03T15:03:06.120Z,4.55
2023-05-03T15:05:34.151Z,7.40
2023-05-03T15:08:00.915Z,5.95
2023-05-03T15:10:27.837Z,6.38
2023-05-03T15:12:54.604Z,7.70
2023-05-03T15:15:21.413Z,6.53
2023-05-03T15:17:49.544Z,5.90
2023-05-03T15:20:16.594Z,5.80
2023-05-03T15:22:43.409Z,6.80
2023-05-03T15:25:10.407Z,7.18
2023-05-03T15:27:37.186Z,6.13
2023-05-03T15:30:04.826Z,5.68
2023-05-03T15:32:31.831Z,5.93
2023-05-03T15:35:00.301Z,6.85
2023-05-03T15:37:34.126Z,7.57
2023-05-03T15:40:00.978Z,6.38
2023-05-03T15:42:28.051Z,6.43
2023-05-03T15:44:54.871Z,7.28
2023-05-03T15:47:21.687Z,7.32
2023-05-03T15:49:48.501Z,8.60
2023-05-03T15:52:16.640Z,5.68
2023-05-03T15:54:43.391Z,6.60
2023-05-03T15:57:10.303Z,5.35
2023-05-03T15:59:37.141Z,4.78
2023-05-03T16:02:04.025Z,6.07
2023-05-03T16:04:31.005Z,4.57
2023-05-03T16:06:57.782Z,4.85
2023-05-03T16:09:25.919Z,5.32
2023-05-03T16:11:52.630Z,4.10
2023-05-03T16:14:19.437Z,10.07
2023-05-03T16:16:47.096Z,4.65
2023-05-03T16:19:15.216Z,5.75
2023-05-03T16:21:42.114Z,5.93
2023-05-03T16:24:09.511Z,4.60
2023-05-03T16:26:37.688Z,6.93
2023-05-03T16:29:04.609Z,6.20
2023-05-03T16:31:31.939Z,6.22
2023-05-03T16:33:58.732Z,4.95
2023-05-03T16:36:25.610Z,4.22
2023-05-03T16:38:52.333Z,4.53
2023-05-03T16:41:19.065Z,4.25
2023-05-03T16:43:47.215Z,5.85
2023-05-03T16:46:14.004Z,6.03
2023-05-03T16:48:40.948Z,3.40
2023-05-03T16:51:07.687Z,4.65
2023-05-03T16:53:34.503Z,4.07
2023-05-03T16:56:01.584Z,3.42
2023-05-03T16:58:28.368Z,4.45
2023-05-03T17:00:56.600Z,3.67
2023-05-03T17:03:23.459Z,4.95
2023-05-03T17:05:50.400Z,3.88
2023-05-03T17:08:17.260Z,5.60
2023-05-03T17:10:44.018Z,4.47
2023-05-03T17:13:10.794Z,4.10
2023-05-03T17:15:37.574Z,3.63
2023-05-03T17:18:05.796Z,3.70
2023-05-03T17:20:34.051Z,5.50
2023-05-03T17:23:00.765Z,5.40
2023-05-03T17:25:27.626Z,4.68
2023-05-03T17:27:54.392Z,4.18
2023-05-03T17:30:21.647Z,4.13
2023-05-03T17:32:48.865Z,4.25
2023-05-03T17:35:17.258Z,4.47
2023-05-03T17:37:45.152Z,4.40
2023-05-03T17:40:12.527Z,4.18
2023-05-03T17:42:39.286Z,3.67
2023-05-03T17:45:07.308Z,4.07
2023-05-03T17:47:34.031Z,4.45
2023-05-03T17:50:00.789Z,6.43
2023-05-03T17:52:28.943Z,8.85
2023-05-03T17:54:56.677Z,4.50
2023-05-03T17:57:23.464Z,7.93
2023-05-03T17:59:50.239Z,9.25
2023-05-03T18:02:17.040Z,5.15
2023-05-03T18:04:43.890Z,6.53
2023-05-03T18:07:10.676Z,5.68
2023-05-03T18:09:38.770Z,5.53
2023-05-03T18:12:06.323Z,5.57
2023-05-03T18:14:34.932Z,14.45
2023-05-03T18:17:01.725Z,5.15
2023-05-03T18:19:28.487Z,6.95
2023-05-03T18:21:55.232Z,7.30
2023-05-03T18:24:22.396Z,5.90
2023-05-03T18:26:50.547Z,5.15
2023-05-03T18:29:17.346Z,7.63
2023-05-03T18:31:44.169Z,7.28
2023-05-03T18:34:11.129Z,6.07
2023-05-03T18:36:39.132Z,8.18
2023-05-03T18:39:05.891Z,5.80
2023-05-03T18:41:32.700Z,6.72
2023-05-03T18:44:00.837Z,6.45
2023-05-03T18:46:27.605Z,5.90
2023-05-03T18:48:54.394Z,8.35
2023-05-03T18:51:21.131Z,5.25
2023-05-03T18:53:47.892Z,6.68
2023-05-03T18:56:14.628Z,8.95
2023-05-03T18:58:41.400Z,7.70
2023-05-03T19:01:09.600Z,7.50
2023-05-03T19:03:36.475Z,8.38
2023-05-03T19:06:04.562Z,9.13
2023-05-03T19:08:31.453Z,6.35
2023-05-03T19:11:05.996Z,9.48
2023-05-03T19:13:32.766Z,8.40
2023-05-03T19:15:59.474Z,11.68
2023-05-03T19:18:27.764Z,9.98
2023-05-03T19:20:54.542Z,10.07
2023-05-03T19:23:21.312Z,9.95
2023-05-03T19:25:48.063Z,9.75
2023-05-03T19:28:14.910Z,8.27
2023-05-03T19:30:41.785Z,8.75
2023-05-03T19:33:08.603Z,8.55
2023-05-03T19:35:39.453Z,9.68
2023-05-03T19:38:06.330Z,13.95
2023-05-03T19:40:33.224Z,11.88
2023-05-03T19:43:00.490Z,9.10
2023-05-03T19:45:27.268Z,12.35
2023-05-03T19:47:54.087Z,8.75
2023-05-03T19:50:20.846Z,12.35
2023-05-03T19:52:51.545Z,14.48
2023-05-03T19:55:18.518Z,9.07
2023-05-03T19:57:45.318Z,9.43
2023-05-03T20:00:12.961Z,13.00
2023-05-03T20:02:39.796Z,9.27
2023-05-03T20:05:07.227Z,9.50
2023-05-03T20:07:34.393Z,11.70
2023-05-03T20:10:02.910Z,9.48
2023-05-03T20:12:29.877Z,10.98
2023-05-03T20:14:56.767Z,10.13
2023-05-03T20:17:23.601Z,10.60
2023-05-03T20:19:50.373Z,9.82
2023-05-03T20:22:17.264Z,10.30
2023-05-03T20:24:44.277Z,15.30
2023-05-03T20:27:12.413Z,10.85
2023-05-03T20:29:39.198Z,10.20
2023-05-03T20:32:06.139Z,10.02
2023-05-03T20:34:32.916Z,9.73
2023-05-03T20:36:59.644Z,14.32
2023-05-03T20:39:26.393Z,13.00
2023-05-03T20:41:53.125Z,11.32
2023-05-03T20:44:21.220Z,12.05
2023-05-03T20:46:47.994Z,11.82
2023-05-03T20:49:14.752Z,13.30
2023-05-03T20:51:41.440Z,14.60
2023-05-03T20:54:08.203Z,12.65
2023-05-03T20:56:35.029Z,13.02
2023-05-03T20:59:01.817Z,10.65
2023-05-03T21:01:30.070Z,12.38
2023-05-03T21:03:56.998Z,11.85
2023-05-03T21:06:23.819Z,10.25
2023-05-03T21:08:50.580Z,14.93
2023-05-03T21:11:17.383Z,13.02
2023-05-03T21:13:44.139Z,11.52
2023-05-03T21:16:10.880Z,13.00
2023-05-03T21:18:39.030Z,11.63
2023-05-03T21:21:05.913Z,12.25
2023-05-03T21:23:32.694Z,11.93
2023-05-03T21:25:59.517Z,13.70
2023-05-03T21:28:26.278Z,13.57
2023-05-03T21:30:54.348Z,11.40
2023-05-03T21:33:21.096Z,11.40
2023-05-03T21:35:49.234Z,13.25
2023-05-03T21:38:16.026Z,10.15
2023-05-03T21:40:42.788Z,10.40
2023-05-03T21:43:09.602Z,10.88
2023-05-03T21:45:36.781Z,13.15
2023-05-03T21:48:04.021Z,10.88
2023-05-03T21:50:30.830Z,10.10
2023-05-03T21:52:58.966Z,12.07
2023-05-03T21:55:25.907Z,9.88
2023-05-03T21:57:52.621Z,10.57
2023-05-03T22:00:19.652Z,10.80
2023-05-03T22:02:46.582Z,11.07
2023-05-03T22:05:13.427Z,12.52
2023-05-03T22:07:40.299Z,9.32
2023-05-03T22:10:09.415Z,11.15
2023-05-03T22:12:36.269Z,11.43
2023-05-03T22:15:03.405Z,11.88
2023-05-03T22:17:31.003Z,10.52
2023-05-03T22:19:58.147Z,13.30
2023-05-03T22:22:25.060Z,10.77
2023-05-03T22:24:51.827Z,10.38
2023-05-03T22:27:19.929Z,9.57
2023-05-03T22:29:46.721Z,9.63
2023-05-03T22:32:13.661Z,10.95
2023-05-03T22:34:40.362Z,11.30
2023-05-03T22:37:07.211Z,13.80
2023-05-03T22:39:33.952Z,11.63
2023-05-03T22:42:00.792Z,11.43
2023-05-03T22:44:28.920Z,11.85
2023-05-03T22:46:55.690Z,10.55
2023-05-03T22:49:22.475Z,13.73
2023-05-03T22:51:49.285Z,12.35
2023-05-03T22:54:16.198Z,11.25
2023-05-03T22:56:42.934Z,11.90
2023-05-03T22:59:09.706Z,14.38
2023-05-03T23:01:37.819Z,13.20
2023-05-03T23:04:04.953Z,12.68
2023-05-03T23:06:31.762Z,13.85
2023-05-03T23:08:58.560Z,11.73
2023-05-03T23:11:25.408Z,13.38
2023-05-03T23:13:52.162Z,13.55
2023-05-03T23:16:18.916Z,13.73
2023-05-03T23:18:47.052Z,11.70
2023-05-03T23:21:13.786Z,14.15
2023-05-03T23:23:40.523Z,13.73
2023-05-03T23:26:07.395Z,12.70
2023-05-03T23:28:34.685Z,11.70
2023-05-03T23:31:01.731Z,12.55
2023-05-03T23:33:29.065Z,14.55
2023-05-03T23:35:57.210Z,13.30
2023-05-03T23:38:23.967Z,14.25
2023-05-03T23:40:50.735Z,12.95
2023-05-03T23:43:17.528Z,12.70
2023-05-03T23:45:44.294Z,14.98
2023-05-03T23:48:11.130Z,13.63
2023-05-03T23:50:37.983Z,13.43
2023-05-03T23:53:06.049Z,13.93
2023-05-03T23:55:32.860Z,13.48
2023-05-03T23:57:59.569Z,12.63
